createdAt,value
2017-08-28T00:02:16.469Z,15.60
2017-08-28T00:04:47.830Z,15.50
2017-08-28T00:07:18.343Z,15.50
2017-08-28T00:09:49.085Z,15.40
2017-08-28T00:12:20.266Z,15.40
2017-08-28T00:14:50.930Z,15.40
2017-08-28T00:17:21.228Z,15.40
2017-08-28T00:19:52.082Z,15.30
2017-08-28T00:22:22.647Z,15.30
2017-08-28T00:24:53.467Z,15.30
2017-08-28T00:27:24.714Z,15.30
2017-08-28T00:29:55.615Z,15.30
2017-08-28T00:32:26.440Z,15.20
2017-08-28T00:34:58.415Z,15.20
2017-08-28T00:37:28.988Z,15.20
2017-08-28T00:39:59.425Z,15.20
2017-08-28T00:42:30.842Z,15.10
2017-08-28T00:45:01.881Z,15.10
2017-08-28T00:47:32.331Z,15.00
2017-08-28T00:50:03.858Z,15.00
2017-08-28T00:52:36.462Z,14.90
2017-08-28T00:55:07.237Z,15.00
2017-08-28T00:57:37.879Z,14.90
2017-08-28T01:00:08.155Z,15.00
2017-08-28T01:02:38.950Z,14.90
2017-08-28T01:05:09.895Z,14.90
2017-08-28T01:07:40.934Z,14.90
2017-08-28T01:10:12.428Z,14.90
2017-08-28T01:12:42.803Z,14.80
2017-08-28T01:15:13.344Z,14.80
2017-08-28T01:17:44.774Z,14.70
2017-08-28T01:20:15.384Z,14.60
2017-08-28T01:22:45.965Z,14.60
2017-08-28T01:25:16.645Z,14.60
2017-08-28T01:27:47.402Z,14.50
2017-08-28T01:30:56.463Z,14.60
2017-08-28T01:33:27.338Z,14.60
2017-08-28T01:35:58.200Z,14.50
2017-08-28T01:38:28.754Z,14.50
2017-08-28T01:40:59.165Z,14.50
2017-08-28T01:43:29.837Z,14.50
2017-08-28T01:46:00.536Z,14.40
2017-08-28T01:48:31.503Z,14.40
2017-08-28T01:51:01.984Z,14.40
2017-08-28T01:53:32.799Z,14.40
2017-08-28T01:56:03.579Z,14.40
2017-08-28T01:58:34.476Z,14.40
2017-08-28T02:01:05.358Z,14.40
2017-08-28T02:03:35.959Z,14.40
2017-08-28T02:06:08.060Z,14.30
2017-08-28T02:08:38.562Z,14.30
2017-08-28T02:11:10.126Z,14.20
2017-08-28T02:13:41.143Z,14.20
2017-08-28T02:16:11.776Z,14.20
2017-08-28T02:18:42.247Z,14.20
2017-08-28T02:21:13.483Z,14.20
2017-08-28T02:23:45.100Z,14.20
2017-08-28T02:26:15.528Z,14.20
2017-08-28T02:28:46.428Z,14.20
2017-08-28T02:31:17.299Z,14.20
2017-08-28T02:33:47.590Z,14.10
2017-08-28T02:36:18.209Z,14.10
2017-08-28T02:40:18.402Z,14.10
2017-08-28T02:42:49.169Z,14.10
2017-08-28T02:45:20.506Z,14.10
2017-08-28T02:47:50.968Z,14.10
2017-08-28T02:50:21.446Z,14.10
2017-08-28T02:52:52.417Z,14.00
2017-08-28T02:55:23.479Z,14.00
2017-08-28T02:57:54.392Z,14.00
2017-08-28T03:00:25.194Z,14.00
2017-08-28T03:02:56.388Z,14.00
2017-08-28T03:05:27.167Z,14.00
2017-08-28T03:07:57.720Z,13.90
2017-08-28T03:10:28.557Z,14.00
2017-08-28T03:12:59.378Z,14.00
2017-08-28T03:15:30.263Z,14.00
2017-08-28T03:18:00.829Z,13.90
2017-08-28T03:20:31.626Z,14.00
2017-08-28T03:23:02.606Z,13.90
2017-08-28T03:25:33.346Z,13.90
2017-08-28T03:28:04.000Z,13.80
2017-08-28T03:30:34.776Z,13.90
2017-08-28T03:33:05.586Z,13.90
2017-08-28T03:35:37.087Z,13.80
2017-08-28T03:38:07.946Z,13.80
2017-08-28T03:40:38.509Z,13.80
2017-08-28T03:43:09.095Z,13.80
2017-08-28T03:45:40.066Z,13.80
2017-08-28T03:48:11.102Z,13.80
2017-08-28T03:50:41.896Z,13.80
2017-08-28T03:53:13.078Z,13.80
2017-08-28T03:55:44.140Z,13.80
2017-08-28T03:58:15.219Z,13.80
2017-08-28T04:00:45.999Z,13.70
2017-08-28T04:03:16.937Z,13.70
2017-08-28T04:05:48.663Z,13.70
2017-08-28T04:08:19.627Z,13.70
2017-08-28T04:10:50.519Z,13.60
2017-08-28T04:13:21.150Z,13.70
2017-08-28T04:15:51.495Z,13.60
2017-08-28T04:18:21.860Z,13.60
2017-08-28T04:20:52.816Z,13.60
2017-08-28T04:23:23.222Z,13.50
2017-08-28T04:25:54.663Z,13.60
2017-08-28T04:28:29.715Z,13.60
2017-08-28T04:31:15.179Z,13.60
2017-08-28T04:34:01.956Z,13.60
2017-08-28T04:36:37.101Z,13.60
2017-08-28T04:39:08.794Z,13.60
2017-08-28T04:41:40.838Z,13.50
2017-08-28T04:44:11.251Z,13.50
2017-08-28T04:48:10.821Z,13.50
2017-08-28T04:50:42.014Z,13.50
2017-08-28T04:53:12.477Z,13.50
2017-08-28T04:55:43.553Z,13.50
2017-08-28T04:58:14.105Z,13.50
2017-08-28T05:00:44.881Z,13.50
2017-08-28T05:03:15.201Z,13.60
2017-08-28T05:07:14.637Z,13.60
2017-08-28T05:09:44.932Z,13.60
2017-08-28T05:12:15.279Z,13.60
2017-08-28T05:14:47.707Z,13.60
2017-08-28T05:17:18.618Z,13.60
2017-08-28T05:19:53.790Z,13.70
2017-08-28T05:22:25.120Z,13.70
2017-08-28T05:25:03.389Z,13.70
2017-08-28T05:27:39.470Z,13.70
2017-08-28T05:30:11.059Z,13.70
2017-08-28T05:32:41.839Z,13.80
2017-08-28T05:35:12.291Z,13.80
2017-08-28T05:37:42.881Z,14.00
2017-08-28T05:40:13.372Z,13.90
2017-08-28T05:42:43.730Z,13.90
2017-08-28T05:45:14.126Z,13.90
2017-08-28T05:47:45.275Z,14.00
2017-08-28T05:50:15.871Z,14.00
2017-08-28T05:52:46.280Z,14.10
2017-08-28T05:55:16.794Z,14.10
2017-08-28T05:57:47.289Z,14.10
2017-08-28T06:00:17.775Z,14.20
2017-08-28T06:02:48.549Z,14.10
2017-08-28T06:05:19.355Z,14.10
2017-08-28T06:07:49.833Z,14.20
2017-08-28T06:10:20.320Z,14.40
2017-08-28T06:12:50.861Z,14.50
2017-08-28T06:15:21.594Z,14.60
2017-08-28T06:17:52.611Z,14.60
2017-08-28T06:20:23.106Z,14.80
2017-08-28T06:22:53.958Z,14.90
2017-08-28T06:25:24.486Z,15.20
2017-08-28T06:27:54.899Z,15.40
2017-08-28T06:30:25.431Z,15.50
2017-08-28T06:32:56.003Z,15.70
2017-08-28T06:35:26.872Z,16.00
2017-08-28T06:37:57.581Z,16.20
2017-08-28T06:40:28.018Z,16.40
2017-08-28T06:42:59.630Z,16.80
2017-08-28T06:45:30.110Z,16.80
2017-08-28T06:48:01.948Z,17.30
2017-08-28T06:50:32.554Z,17.40
2017-08-28T06:53:03.372Z,17.70
2017-08-28T06:55:33.859Z,17.70
2017-08-28T06:58:04.283Z,17.80
2017-08-28T07:00:35.547Z,18.70
2017-08-28T07:03:06.463Z,18.70
2017-08-28T07:05:38.354Z,19.30
2017-08-28T07:08:09.293Z,19.30
2017-08-28T07:10:40.248Z,19.40
2017-08-28T07:13:12.126Z,19.60
2017-08-28T07:15:42.618Z,19.80
2017-08-28T07:18:14.547Z,20.00
2017-08-28T07:20:45.329Z,20.00
2017-08-28T07:23:15.778Z,20.10
2017-08-28T07:25:46.622Z,20.60
2017-08-28T07:28:17.600Z,21.10
2017-08-28T07:30:49.312Z,21.60
2017-08-28T07:33:20.061Z,21.30
2017-08-28T07:35:50.587Z,21.60
2017-08-28T07:38:21.342Z,21.90
2017-08-28T07:40:55.546Z,21.90
2017-08-28T07:43:26.075Z,22.00
2017-08-28T07:45:56.576Z,22.40
2017-08-28T07:48:27.134Z,22.90
2017-08-28T07:50:58.018Z,23.20
2017-08-28T07:53:29.281Z,23.70
2017-08-28T07:55:59.972Z,23.60
2017-08-28T07:58:30.640Z,24.00
2017-08-28T08:01:01.377Z,24.00
2017-08-28T08:06:12.067Z,24.20
2017-08-28T08:08:42.562Z,24.60
2017-08-28T08:11:12.999Z,25.00
2017-08-28T08:13:43.721Z,25.20
2017-08-28T08:16:14.267Z,25.30
2017-08-28T08:18:45.054Z,24.90
2017-08-28T08:21:15.651Z,25.30
2017-08-28T08:23:47.251Z,25.50
2017-08-28T08:26:17.765Z,25.40
2017-08-28T08:28:48.325Z,25.80
2017-08-28T08:31:18.777Z,26.40
2017-08-28T08:33:54.516Z,26.20
2017-08-28T08:36:25.135Z,25.80
2017-08-28T08:38:55.634Z,25.70
2017-08-28T08:41:26.193Z,25.50
2017-08-28T08:43:56.671Z,25.10
2017-08-28T08:46:27.147Z,25.30
2017-08-28T08:48:58.691Z,25.90
2017-08-28T08:51:29.138Z,25.50
2017-08-28T08:53:59.714Z,25.30
2017-08-28T08:56:30.416Z,25.10
2017-08-28T08:59:00.888Z,24.90
2017-08-28T09:01:31.374Z,25.30
2017-08-28T09:04:02.635Z,25.70
2017-08-28T09:06:33.381Z,25.70
2017-08-28T09:09:04.115Z,26.00
2017-08-28T09:11:34.566Z,25.80
2017-08-28T09:14:05.034Z,25.60
2017-08-28T09:16:35.627Z,25.80
2017-08-28T09:19:06.216Z,26.60
2017-08-28T09:21:36.733Z,26.90
2017-08-28T09:24:07.629Z,27.40
2017-08-28T09:26:38.218Z,26.80
2017-08-28T09:29:08.695Z,26.20
2017-08-28T09:31:39.254Z,26.20
2017-08-28T09:34:10.119Z,26.70
2017-08-28T09:36:40.579Z,26.40
2017-08-28T09:39:11.198Z,26.50
2017-08-28T09:41:41.635Z,26.90
2017-08-28T09:44:12.168Z,27.20
2017-08-28T09:46:42.627Z,27.30
2017-08-28T09:49:13.449Z,26.40
2017-08-28T09:51:44.178Z,26.50
2017-08-28T09:54:14.918Z,27.10
2017-08-28T09:56:45.376Z,28.20
2017-08-28T09:59:15.939Z,27.30
2017-08-28T10:01:46.382Z,27.40
2017-08-28T10:04:17.238Z,27.30
2017-08-28T10:06:47.700Z,27.40
2017-08-28T10:09:18.204Z,27.20
2017-08-28T10:11:48.574Z,26.70
2017-08-28T10:14:19.089Z,26.90
2017-08-28T10:16:49.810Z,26.50
2017-08-28T10:19:20.550Z,26.50
2017-08-28T10:21:51.140Z,27.00
2017-08-28T10:24:21.730Z,27.50
2017-08-28T10:26:51.492Z,26.70
2017-08-28T10:29:22.145Z,27.00
2017-08-28T10:31:52.502Z,27.60
2017-08-28T10:34:23.989Z,27.80
2017-08-28T10:36:54.762Z,27.70
2017-08-28T10:39:25.088Z,28.10
2017-08-28T10:41:56.123Z,28.10
2017-08-28T10:44:27.017Z,27.60
2017-08-28T10:46:57.754Z,27.00
2017-08-28T10:49:28.191Z,27.30
2017-08-28T10:51:58.768Z,26.90
2017-08-28T10:54:29.230Z,27.50
2017-08-28T10:56:59.835Z,27.10
2017-08-28T10:59:30.400Z,27.90
2017-08-28T11:02:01.182Z,27.60
2017-08-28T11:04:31.606Z,27.20
2017-08-28T11:07:02.188Z,27.40
2017-08-28T11:09:32.962Z,27.70
2017-08-28T11:12:03.503Z,27.60
2017-08-28T11:14:33.822Z,27.70
2017-08-28T11:17:04.301Z,27.70
2017-08-28T11:19:34.815Z,28.40
2017-08-28T11:22:05.306Z,28.70
2017-08-28T11:24:36.198Z,29.60
2017-08-28T11:27:07.494Z,30.60
2017-08-28T11:29:37.847Z,30.60
2017-08-28T11:32:08.716Z,30.30
2017-08-28T11:34:39.603Z,30.70
2017-08-28T11:37:10.307Z,30.20
2017-08-28T11:39:40.647Z,29.90
2017-08-28T11:42:11.019Z,29.50
2017-08-28T11:44:41.459Z,28.60
2017-08-28T11:47:12.725Z,28.40
2017-08-28T11:49:43.706Z,28.30
2017-08-28T11:52:14.216Z,29.50
2017-08-28T11:54:44.667Z,29.40
2017-08-28T11:57:15.214Z,30.40
2017-08-28T11:59:45.735Z,31.00
2017-08-28T12:02:16.367Z,30.70
2017-08-28T12:04:47.070Z,30.90
2017-08-28T12:07:17.566Z,30.70
2017-08-28T12:09:48.071Z,30.40
2017-08-28T12:12:18.483Z,30.20
2017-08-28T12:14:48.938Z,29.90
2017-08-28T12:17:26.335Z,29.50
2017-08-28T12:19:56.843Z,29.50
2017-08-28T12:22:27.605Z,30.30
2017-08-28T12:24:58.702Z,30.90
2017-08-28T12:27:29.950Z,29.00
2017-08-28T12:30:00.410Z,29.00
2017-08-28T12:32:31.607Z,30.00
2017-08-28T12:35:02.427Z,29.90
2017-08-28T12:37:33.154Z,30.80
2017-08-28T12:40:03.947Z,30.70
2017-08-28T12:42:35.491Z,29.40
2017-08-28T12:45:06.567Z,29.40
2017-08-28T12:47:37.053Z,29.20
2017-08-28T12:50:07.822Z,28.70
2017-08-28T12:52:38.245Z,29.20
2017-08-28T12:55:09.471Z,29.60
2017-08-28T12:57:40.281Z,29.00
2017-08-28T13:00:11.126Z,28.70
2017-08-28T13:02:41.748Z,28.90
2017-08-28T13:05:12.182Z,28.50
2017-08-28T13:09:12.043Z,29.20
2017-08-28T13:11:43.237Z,29.00
2017-08-28T13:14:14.079Z,29.10
2017-08-28T13:16:44.605Z,29.70
2017-08-28T13:19:15.084Z,30.00
2017-08-28T13:21:45.519Z,30.40
2017-08-28T13:24:16.829Z,30.80
2017-08-28T13:26:47.323Z,31.20
2017-08-28T13:29:18.764Z,30.50
2017-08-28T13:31:50.329Z,29.80
2017-08-28T13:34:20.781Z,29.80
2017-08-28T13:36:52.040Z,29.50
2017-08-28T13:39:22.588Z,29.80
2017-08-28T13:41:52.917Z,30.50
2017-08-28T13:44:23.781Z,30.90
2017-08-28T13:46:55.293Z,28.80
2017-08-28T13:49:25.660Z,28.80
2017-08-28T13:51:56.158Z,28.90
2017-08-28T13:54:26.641Z,29.20
2017-08-28T13:56:57.216Z,30.00
2017-08-28T13:59:27.834Z,29.60
2017-08-28T14:01:58.607Z,29.10
2017-08-28T14:04:29.983Z,30.10
2017-08-28T14:07:00.767Z,30.00
2017-08-28T14:09:31.773Z,29.90
2017-08-28T14:12:02.399Z,29.40
2017-08-28T14:14:32.924Z,30.00
2017-08-28T14:17:03.688Z,30.20
2017-08-28T14:19:34.659Z,29.60
2017-08-28T14:22:05.184Z,28.20
2017-08-28T14:24:35.990Z,28.40
2017-08-28T14:27:06.790Z,27.20
2017-08-28T14:29:37.540Z,27.70
2017-08-28T14:32:08.152Z,28.40
2017-08-28T14:34:39.140Z,28.40
2017-08-28T14:37:09.919Z,28.50
2017-08-28T14:39:41.777Z,27.30
2017-08-28T14:42:12.900Z,27.30
2017-08-28T14:44:43.446Z,27.10
2017-08-28T14:47:14.594Z,27.40
2017-08-28T14:49:45.050Z,27.80
2017-08-28T14:52:15.454Z,27.80
2017-08-28T14:54:46.491Z,28.20
2017-08-28T14:57:16.906Z,28.90
2017-08-28T14:59:49.015Z,30.10
2017-08-28T15:02:20.217Z,30.10
2017-08-28T15:04:50.974Z,29.10
2017-08-28T15:07:22.904Z,28.60
2017-08-28T15:09:54.179Z,28.50
2017-08-28T15:12:24.634Z,28.80
2017-08-28T15:14:55.284Z,28.20
2017-08-28T15:17:27.059Z,28.80
2017-08-28T15:19:58.456Z,29.00
2017-08-28T15:22:29.690Z,29.40
2017-08-28T15:25:00.888Z,29.40
2017-08-28T15:27:32.885Z,29.90
2017-08-28T15:30:03.583Z,29.70
2017-08-28T15:32:34.085Z,29.50
2017-08-28T15:35:04.736Z,29.60
2017-08-28T15:37:35.282Z,29.10
2017-08-28T15:40:06.518Z,27.90
2017-08-28T15:42:37.000Z,28.00
2017-08-28T15:45:07.638Z,28.40
2017-08-28T15:47:38.488Z,28.80
2017-08-28T15:50:09.929Z,29.30
2017-08-28T15:52:40.738Z,29.30
2017-08-28T15:55:11.228Z,29.30
2017-08-28T15:57:41.678Z,29.10
2017-08-28T16:00:12.559Z,28.60
2017-08-28T16:02:44.280Z,28.00
2017-08-28T16:05:14.641Z,27.10
2017-08-28T16:07:45.934Z,27.30
2017-08-28T16:10:16.413Z,27.40
2017-08-28T16:12:47.042Z,27.50
2017-08-28T16:15:17.463Z,27.70
2017-08-28T16:17:47.963Z,27.40
2017-08-28T16:20:18.728Z,27.20
2017-08-28T16:22:50.090Z,27.30
2017-08-28T16:25:20.419Z,26.80
2017-08-28T16:27:52.365Z,26.50
2017-08-28T16:30:23.201Z,26.50
2017-08-28T16:32:53.786Z,26.30
2017-08-28T16:35:25.811Z,26.20
2017-08-28T16:37:57.449Z,25.70
2017-08-28T16:40:27.975Z,25.60
2017-08-28T16:42:58.806Z,25.50
2017-08-28T16:45:29.228Z,25.50
2017-08-28T16:48:00.821Z,25.60
2017-08-28T16:50:31.832Z,25.60
2017-08-28T16:53:02.566Z,25.60
2017-08-28T16:55:33.726Z,25.50
2017-08-28T16:58:04.777Z,25.70
2017-08-28T17:00:35.266Z,26.00
2017-08-28T17:03:05.795Z,26.20
2017-08-28T17:05:37.178Z,26.40
2017-08-28T17:08:07.812Z,26.40
2017-08-28T17:10:38.556Z,26.40
2017-08-28T17:13:09.300Z,26.40
2017-08-28T17:15:40.258Z,26.40
2017-08-28T17:18:10.869Z,26.00
2017-08-28T17:20:42.474Z,25.30
2017-08-28T17:23:13.675Z,25.40
2017-08-28T17:25:44.530Z,25.30
2017-08-28T17:28:16.802Z,25.20
2017-08-28T17:30:47.469Z,25.00
2017-08-28T17:33:18.111Z,25.00
2017-08-28T17:35:49.128Z,25.10
2017-08-28T17:38:20.108Z,24.90
2017-08-28T17:40:51.032Z,24.70
2017-08-28T17:43:22.444Z,24.80
2017-08-28T17:45:53.231Z,24.90
2017-08-28T17:48:23.966Z,25.00
2017-08-28T17:50:54.978Z,24.90
2017-08-28T17:53:25.675Z,24.90
2017-08-28T17:55:56.260Z,25.00
2017-08-28T17:58:26.781Z,25.10
2017-08-28T18:00:57.800Z,25.10
2017-08-28T18:03:28.623Z,25.10
2017-08-28T18:05:59.056Z,25.20
2017-08-28T18:08:29.843Z,25.20
2017-08-28T18:11:01.091Z,25.00
2017-08-28T18:13:31.726Z,25.00
2017-08-28T18:16:02.553Z,24.90
2017-08-28T18:18:33.009Z,24.80
2017-08-28T18:21:03.494Z,24.70
2017-08-28T18:23:34.411Z,24.70
2017-08-28T18:26:04.827Z,24.50
2017-08-28T18:28:35.344Z,24.50
2017-08-28T18:31:06.148Z,24.40
2017-08-28T18:33:36.903Z,24.30
2017-08-28T18:36:07.880Z,24.20
2017-08-28T18:38:38.651Z,24.10
2017-08-28T18:41:09.383Z,24.00
2017-08-28T18:43:40.054Z,23.90
2017-08-28T18:46:10.547Z,23.80
2017-08-28T18:48:41.580Z,23.70
2017-08-28T18:51:12.049Z,23.50
2017-08-28T18:53:42.954Z,23.40
2017-08-28T18:56:14.010Z,23.30
2017-08-28T18:58:44.371Z,23.20
2017-08-28T19:01:14.831Z,23.20
2017-08-28T19:03:47.352Z,23.10
2017-08-28T19:06:19.238Z,23.00
2017-08-28T19:08:49.910Z,22.90
2017-08-28T19:11:20.285Z,22.80
2017-08-28T19:13:50.995Z,22.70
2017-08-28T19:16:22.556Z,22.70
2017-08-28T19:18:53.294Z,22.70
2017-08-28T19:21:23.738Z,22.60
2017-08-28T19:23:54.472Z,22.50
2017-08-28T19:26:25.815Z,22.40
2017-08-28T19:28:56.371Z,22.40
2017-08-28T19:31:26.919Z,22.30
2017-08-28T19:34:22.701Z,22.20
2017-08-28T19:37:04.350Z,22.10
2017-08-28T19:39:35.077Z,22.00
2017-08-28T19:42:06.904Z,21.90
2017-08-28T19:44:37.812Z,21.90
2017-08-28T19:47:08.207Z,21.80
2017-08-28T19:49:38.747Z,21.70
2017-08-28T19:52:11.126Z,21.70
2017-08-28T19:54:41.612Z,21.60
2017-08-28T19:57:12.048Z,21.60
2017-08-28T19:59:42.471Z,21.50
2017-08-28T20:02:18.792Z,21.50
2017-08-28T20:04:50.330Z,21.30
2017-08-28T20:07:21.736Z,21.20
2017-08-28T20:09:52.630Z,21.20
2017-08-28T20:12:24.023Z,21.10
2017-08-28T20:14:54.593Z,21.10
2017-08-28T20:17:25.481Z,21.10
2017-08-28T20:19:56.323Z,21.00
2017-08-28T20:22:26.847Z,20.90
2017-08-28T20:24:57.858Z,20.90
2017-08-28T20:27:29.084Z,20.70
2017-08-28T20:29:59.641Z,20.70
2017-08-28T20:32:30.915Z,20.60
2017-08-28T20:35:03.083Z,20.60
2017-08-28T20:37:33.756Z,20.50
2017-08-28T20:40:04.194Z,20.50
2017-08-28T20:42:34.936Z,20.40
2017-08-28T20:45:05.376Z,20.40
2017-08-28T20:47:36.064Z,20.30
2017-08-28T20:50:06.568Z,20.20
2017-08-28T20:52:37.322Z,20.20
2017-08-28T20:55:08.123Z,20.20
2017-08-28T20:57:38.484Z,20.10
2017-08-28T21:00:10.339Z,20.00
2017-08-28T21:02:41.789Z,20.00
2017-08-28T21:05:12.723Z,20.00
2017-08-28T21:07:44.840Z,19.90
2017-08-28T21:10:15.726Z,19.90
2017-08-28T21:12:46.163Z,19.90
2017-08-28T21:15:16.639Z,19.80
2017-08-28T21:17:47.835Z,19.70
2017-08-28T21:20:18.331Z,19.70
2017-08-28T21:22:49.198Z,19.60
2017-08-28T21:25:21.142Z,19.50
2017-08-28T21:27:52.539Z,19.50
2017-08-28T21:30:23.315Z,19.50
2017-08-28T21:32:53.852Z,19.50
2017-08-28T21:35:24.618Z,19.40
2017-08-28T21:37:55.697Z,19.40
2017-08-28T21:40:27.706Z,19.30
2017-08-28T21:42:58.042Z,19.30
2017-08-28T21:45:28.830Z,19.30
2017-08-28T21:47:59.389Z,19.30
2017-08-28T21:50:30.559Z,19.20
2017-08-28T21:53:01.466Z,19.10
2017-08-28T21:55:31.924Z,19.10
2017-08-28T21:58:03.283Z,19.10
2017-08-28T22:00:34.014Z,19.10
2017-08-28T22:03:04.482Z,19.00
2017-08-28T22:05:36.378Z,19.00
2017-08-28T22:08:07.854Z,18.90
2017-08-28T22:10:38.418Z,18.90
2017-08-28T22:13:09.177Z,18.90
2017-08-28T22:15:39.995Z,18.80
2017-08-28T22:18:10.520Z,18.80
2017-08-28T22:20:42.193Z,18.80
2017-08-28T22:23:17.971Z,18.80
2017-08-28T22:25:50.422Z,18.80
2017-08-28T22:28:21.027Z,18.80
2017-08-28T22:30:52.271Z,18.70
2017-08-28T22:33:22.778Z,18.70
2017-08-28T22:35:53.668Z,18.70
2017-08-28T22:38:25.680Z,18.70
2017-08-28T22:40:56.433Z,18.70
2017-08-28T22:43:26.762Z,18.50
2017-08-28T22:45:57.238Z,18.60
2017-08-28T22:48:27.927Z,18.50
2017-08-28T22:50:58.711Z,18.50
2017-08-28T22:53:30.055Z,18.40
2017-08-28T22:56:00.553Z,18.40
2017-08-28T22:58:30.880Z,18.40
2017-08-28T23:01:01.570Z,18.30
2017-08-28T23:03:32.405Z,18.20
2017-08-28T23:06:03.279Z,18.10
2017-08-28T23:08:34.115Z,18.20
2017-08-28T23:11:04.839Z,18.20
2017-08-28T23:13:36.150Z,18.10
2017-08-28T23:16:07.250Z,18.10
2017-08-28T23:18:37.742Z,18.10
2017-08-28T23:21:08.650Z,18.10
2017-08-28T23:23:39.229Z,18.10
2017-08-28T23:26:10.162Z,18.10
2017-08-28T23:28:41.130Z,18.10
2017-08-28T23:31:11.856Z,18.00
2017-08-28T23:33:42.562Z,18.00
2017-08-28T23:36:12.940Z,18.10
2017-08-28T23:38:43.547Z,18.10
2017-08-28T23:41:14.314Z,18.10
2017-08-28T23:43:44.819Z,18.10
2017-08-28T23:46:15.421Z,18.10
2017-08-28T23:48:45.987Z,18.10
2017-08-28T23:51:16.675Z,18.10
2017-08-28T23:53:47.293Z,18.10
2017-08-28T23:56:18.530Z,18.10
2017-08-28T23:58:50.009Z,18.20
